Time;durP1;ratioP1;P1;durP2;ratioP2;P2;SDS_P1;SDS_P2;PMS_P1;PMS_P2;Temp;Humidity;BMP_temperature;BMP_pressure;BME280_temperature;BME280_humidity;BME280_pressure;Samples;Min_cycle;Max_cycle;Signal;HPM_P1;HPM_P2
2022/08/24 00:01:15;;;;;;;82.22;74.50;;;19.40;99.90;;;;;;5112738;27;20042;-65
2022/08/24 00:03:42;;;;;;;77.10;69.90;;;19.40;99.90;;;;;;5129500;27;20136;-66
2022/08/24 00:06:10;;;;;;;74.70;67.60;;;19.40;99.90;;;;;;5102012;27;20758;-66
2022/08/24 00:08:37;;;;;;;76.88;70.07;;;19.20;99.90;;;;;;5112896;27;20050;-66
2022/08/24 00:11:04;;;;;;;72.88;66.28;;;19.20;99.90;;;;;;5087654;27;20275;-66
2022/08/24 00:13:30;;;;;;;82.63;74.85;;;19.10;99.90;;;;;;5081748;27;20408;-66
2022/08/24 00:15:56;;;;;;;87.50;79.00;;;19.20;99.90;;;;;;5111741;27;20038;-66
2022/08/24 00:18:22;;;;;;;78.57;71.15;;;19.10;99.90;;;;;;5095072;27;20034;-65
2022/08/24 00:20:47;;;;;;;71.82;65.32;;;19.00;99.90;;;;;;5112786;27;20619;-66
2022/08/24 00:23:14;;;;;;;75.15;67.97;;;18.80;99.90;;;;;;5112276;27;20026;-65
2022/08/24 00:25:40;;;;;;;75.72;68.72;;;19.00;99.90;;;;;;5085823;27;20066;-66
2022/08/24 00:28:06;;;;;;;72.32;65.93;;;18.90;99.90;;;;;;5112227;27;20046;-66
2022/08/24 00:30:33;;;;;;;73.80;67.13;;;18.80;99.90;;;;;;5111893;27;20038;-66
2022/08/24 00:33:00;;;;;;;76.43;69.05;;;18.80;99.90;;;;;;5077866;27;20050;-66
2022/08/24 00:35:26;;;;;;;77.22;70.05;;;18.90;99.90;;;;;;5111313;27;20071;-66
2022/08/24 00:37:53;;;;;;;77.38;69.88;;;18.70;99.90;;;;;;5112395;27;20070;-65
2022/08/24 00:40:34;;;;;;;85.95;78.00;;;18.80;99.90;;;;;;5118757;27;20043;-66
2022/08/24 00:43:03;;;;;;;81.75;74.07;;;18.70;99.90;;;;;;5110489;27;20246;-66
2022/08/24 00:45:33;;;;;;;89.80;81.13;;;18.70;99.90;;;;;;5101494;27;20042;-66
2022/08/24 00:48:05;;;;;;;88.28;79.63;;;18.60;99.90;;;;;;5112184;27;20570;-66
2022/08/24 00:50:38;;;;;;;82.55;74.85;;;18.60;99.90;;;;;;5130768;27;20050;-65
2022/08/24 00:53:06;;;;;;;;;;;18.40;99.90;;;;;;5111645;27;20107;-66
2022/08/24 00:55:36;;;;;;;90.80;81.85;;;18.50;99.90;;;;;;5111211;27;19975;-66
2022/08/24 00:58:07;;;;;;;85.32;77.13;;;18.40;99.90;;;;;;5097991;27;20390;-66
2022/08/24 01:00:40;;;;;;;93.38;84.07;;;18.40;99.90;;;;;;5116047;27;20177;-65
2022/08/24 01:03:06;;;;;;;94.50;85.15;;;18.40;99.90;;;;;;5115614;27;20030;-66
2022/08/24 01:05:35;;;;;;;93.85;84.85;;;18.40;99.90;;;;;;5115339;27;20597;-65
2022/08/24 01:08:02;;;;;;;106.22;94.97;;;18.30;99.90;;;;;;5114075;27;20058;-66
2022/08/24 01:10:32;;;;;;;92.28;83.40;;;18.30;99.90;;;;;;5097755;27;20057;-65
2022/08/24 01:13:02;;;;;;;98.32;88.47;;;18.40;99.90;;;;;;5115152;27;20049;-65
2022/08/24 01:15:35;;;;;;;99.32;89.43;;;18.40;99.90;;;;;;5115680;27;20561;-66
2022/08/24 01:20:55;;;;;;;100.45;89.95;;;18.30;99.90;;;;;;5134105;27;20695;-65
2022/08/24 01:23:33;;;;;;;105.93;94.80;;;18.50;99.90;;;;;;5115323;27;20401;-65
2022/08/24 01:25:59;;;;;;;105.47;94.47;;;18.30;99.90;;;;;;5115077;27;20563;-66
2022/08/24 01:28:26;;;;;;;118.07;103.97;;;18.40;99.90;;;;;;5115941;27;20034;-66
2022/08/24 01:30:51;;;;;;;116.88;104.57;;;18.30;99.90;;;;;;5098456;27;20134;-66
2022/08/24 01:33:24;;;;;;;103.32;92.63;;;18.30;99.90;;;;;;5115047;27;20035;-65
2022/08/24 01:35:57;;;;;;;120.32;106.43;;;18.20;99.90;;;;;;5115037;27;20340;-66
2022/08/24 01:38:23;;;;;;;127.18;108.45;;;18.10;99.90;;;;;;5115355;27;20604;-66
2022/08/24 01:40:53;;;;;;;131.23;114.97;;;18.10;99.90;;;;;;5098164;27;20155;-66
2022/08/24 01:43:19;;;;;;;114.70;102.18;;;18.30;99.90;;;;;;5115442;27;20039;-65
2022/08/24 01:45:45;;;;;;;123.45;110.03;;;18.00;99.90;;;;;;5114577;27;20851;-66
2022/08/24 01:48:12;;;;;;;118.05;105.55;;;18.00;99.90;;;;;;5097627;27;20042;-66
2022/08/24 01:50:38;;;;;;;131.35;112.90;;;18.00;99.90;;;;;;5114445;27;20488;-65
2022/08/24 01:53:05;;;;;;;130.55;110.85;;;17.90;99.90;;;;;;5096586;27;20053;-65
2022/08/24 01:55:31;;;;;;;132.10;112.28;;;17.90;99.90;;;;;;5114331;27;20880;-66
2022/08/24 01:57:57;;;;;;;123.13;108.60;;;17.90;99.90;;;;;;5114753;27;20095;-65
2022/08/24 02:00:23;;;;;;;121.70;104.00;;;18.10;99.90;;;;;;5114476;27;20503;-66
2022/08/24 02:02:49;;;;;;;112.30;99.93;;;17.90;99.90;;;;;;5133028;27;20042;-66
2022/08/24 02:05:16;;;;;;;119.63;105.03;;;17.90;99.90;;;;;;5133317;27;20027;-65
2022/08/24 02:07:41;;;;;;;125.78;108.25;;;17.90;99.90;;;;;;5113747;27;20411;-65
2022/08/24 02:10:10;;;;;;;113.57;101.35;;;18.10;99.90;;;;;;5114602;27;20567;-66
2022/08/24 02:12:38;;;;;;;106.55;95.65;;;17.90;99.90;;;;;;5133172;27;20216;-65
2022/08/24 02:15:07;;;;;;;114.65;102.50;;;18.10;99.90;;;;;;5114383;27;20057;-65
2022/08/24 02:17:33;;;;;;;116.45;101.63;;;17.80;99.90;;;;;;5095834;27;20271;-67
2022/08/24 02:19:59;;;;;;;119.93;106.80;;;18.10;99.90;;;;;;5113918;27;20034;-65
2022/08/24 02:22:25;;;;;;;122.22;108.57;;;18.00;99.90;;;;;;5133431;27;20031;-65
2022/08/24 02:24:51;;;;;;;131.75;111.32;;;17.90;99.90;;;;;;5133963;27;20495;-66
2022/08/24 02:27:17;;;;;;;137.45;114.78;;;18.00;99.90;;;;;;5096668;27;20232;-66
2022/08/24 02:29:43;;;;;;;145.30;117.78;;;18.20;99.90;;;;;;5131591;27;20054;-65
2022/08/24 02:32:11;;;;;;;138.10;113.43;;;18.00;99.90;;;;;;5133488;27;20042;-65
2022/08/24 02:34:37;;;;;;;137.77;111.18;;;18.20;99.90;;;;;;5113127;27;20477;-65
2022/08/24 02:37:03;;;;;;;141.27;115.60;;;18.00;99.90;;;;;;5114679;27;20042;-66
2022/08/24 02:39:29;;;;;;;140.38;112.93;;;18.00;99.90;;;;;;5114633;27;20481;-66
2022/08/24 02:41:54;;;;;;;130.75;109.93;;;18.20;99.90;;;;;;5113602;27;20030;-65
2022/08/24 02:44:20;;;;;;;152.80;118.03;;;18.00;99.90;;;;;;5132396;27;20027;-65
2022/08/24 02:46:46;;;;;;;164.05;127.28;;;17.90;99.90;;;;;;5113537;27;20050;-65
2022/08/24 02:49:12;;;;;;;163.90;130.60;;;18.00;99.90;;;;;;5113831;27;20343;-65
2022/08/24 02:51:40;;;;;;;171.25;130.82;;;18.00;99.90;;;;;;5132093;27;20476;-65
2022/08/24 02:54:06;;;;;;;170.23;126.13;;;17.80;99.90;;;;;;5131388;27;20066;-65
2022/08/24 02:56:32;;;;;;;181.48;133.10;;;17.80;99.90;;;;;;5113640;27;20301;-65
2022/08/24 02:58:59;;;;;;;154.18;120.55;;;17.80;99.90;;;;;;5113418;27;20405;-65
2022/08/24 03:01:26;;;;;;;173.20;123.25;;;17.80;99.90;;;;;;5096253;27;20039;-65
2022/08/24 03:03:52;;;;;;;183.73;127.03;;;17.80;99.90;;;;;;5106143;27;20122;-64
2022/08/24 03:06:18;;;;;;;161.20;124.22;;;17.80;99.90;;;;;;5130471;27;20041;-65
2022/08/24 03:08:45;;;;;;;149.82;118.55;;;17.60;99.90;;;;;;5128757;27;20055;-65
2022/08/24 03:11:12;;;;;;;177.15;130.07;;;17.80;99.90;;;;;;5113077;27;20045;-64
2022/08/24 03:13:39;;;;;;;150.07;116.30;;;17.80;99.90;;;;;;5112402;27;20538;-65
2022/08/24 03:16:06;;;;;;;154.80;118.15;;;17.60;99.90;;;;;;5113341;27;20216;-66
2022/08/24 03:18:32;;;;;;;152.52;117.57;;;17.50;99.90;;;;;;5113128;27;20043;-66
2022/08/24 03:21:00;;;;;;;153.63;116.55;;;17.70;99.90;;;;;;5114290;27;20038;-65
2022/08/24 03:23:26;;;;;;;195.52;135.25;;;17.50;99.90;;;;;;5099458;27;20048;-65
2022/08/24 03:25:54;;;;;;;185.65;133.05;;;17.50;99.90;;;;;;5112107;27;20283;-66
2022/08/24 03:28:22;;;;;;;164.68;122.78;;;17.70;99.90;;;;;;5112763;27;20536;-65
2022/08/24 03:30:49;;;;;;;177.23;125.00;;;17.50;99.90;;;;;;5113006;27;20150;-65
2022/08/24 03:33:15;;;;;;;156.50;119.07;;;17.50;99.90;;;;;;5085623;27;20283;-66
2022/08/24 03:35:41;;;;;;;160.32;120.85;;;17.70;99.90;;;;;;5113386;27;20455;-64
2022/08/24 03:38:07;;;;;;;160.95;120.20;;;17.50;99.90;;;;;;5113237;27;20188;-65
2022/08/24 03:40:33;;;;;;;157.90;119.32;;;17.60;99.90;;;;;;5112673;27;20034;-64
2022/08/24 03:43:00;;;;;;;193.45;132.63;;;17.70;99.90;;;;;;5112860;27;20046;-64
2022/08/24 03:45:28;;;;;;;191.25;130.85;;;17.50;99.90;;;;;;5112833;27;20034;-64
2022/08/24 03:47:54;;;;;;;224.27;145.05;;;17.80;99.90;;;;;;5113455;27;20081;-64
2022/08/24 03:50:21;;;;;;;165.30;121.85;;;17.80;99.90;;;;;;5131777;27;20322;-64
2022/08/24 03:52:47;;;;;;;198.35;133.93;;;17.80;99.90;;;;;;5112957;27;20046;-64
2022/08/24 03:55:13;;;;;;;169.65;126.75;;;17.60;99.90;;;;;;5112521;27;20381;-64
2022/08/24 03:57:39;;;;;;;154.50;116.40;;;17.50;99.90;;;;;;5131486;27;20199;-64
2022/08/24 04:00:08;;;;;;;182.60;128.38;;;17.50;99.90;;;;;;5112380;27;20301;-64
2022/08/24 04:02:34;;;;;;;172.80;124.38;;;17.50;99.90;;;;;;5113392;27;20045;-64
2022/08/24 04:05:00;;;;;;;192.30;128.90;;;17.50;99.90;;;;;;5104794;27;20042;-64
2022/08/24 04:07:26;;;;;;;171.60;121.90;;;17.50;99.90;;;;;;5095059;27;20067;-64
2022/08/24 04:09:52;;;;;;;158.55;120.70;;;17.50;99.90;;;;;;5129016;27;20317;-65
2022/08/24 04:12:18;;;;;;;185.35;128.80;;;17.40;99.90;;;;;;5112978;27;20279;-64
2022/08/24 04:14:44;;;;;;;192.25;131.23;;;17.40;99.90;;;;;;5130728;27;20368;-64
2022/08/24 04:17:11;;;;;;;185.07;129.70;;;17.50;99.90;;;;;;5111698;27;20042;-64
2022/08/24 04:19:37;;;;;;;182.40;127.80;;;17.50;99.90;;;;;;5131239;27;20026;-64
2022/08/24 04:22:03;;;;;;;164.63;120.97;;;17.40;99.90;;;;;;5131747;27;20106;-64
2022/08/24 04:24:28;;;;;;;208.90;136.65;;;17.50;99.90;;;;;;5112148;27;20042;-64
2022/08/24 04:26:54;;;;;;;189.07;129.93;;;17.40;99.90;;;;;;5112132;27;20054;-64
2022/08/24 04:29:20;;;;;;;161.40;118.30;;;17.50;99.90;;;;;;5112349;27;20050;-64
2022/08/24 04:31:46;;;;;;;145.30;113.28;;;17.40;99.90;;;;;;5116039;27;20061;-65
2022/08/24 04:34:14;;;;;;;169.30;125.38;;;17.50;99.90;;;;;;5134690;27;20043;-65
2022/08/24 04:36:41;;;;;;;190.57;128.65;;;17.30;99.90;;;;;;5116583;27;20047;-64
2022/08/24 04:39:06;;;;;;;173.35;123.28;;;17.30;99.90;;;;;;5098987;27;20106;-65
2022/08/24 04:41:32;;;;;;;195.13;132.55;;;17.30;99.90;;;;;;5116731;27;20920;-64
2022/08/24 04:43:59;;;;;;;173.25;123.80;;;17.30;99.90;;;;;;5135103;27;20836;-65
2022/08/24 04:46:25;;;;;;;172.18;124.85;;;17.60;99.90;;;;;;5115643;27;20519;-63
2022/08/24 04:48:51;;;;;;;175.73;123.68;;;17.50;99.90;;;;;;5133589;27;20061;-64
2022/08/24 04:51:18;;;;;;;168.77;122.35;;;17.50;99.90;;;;;;5115604;27;20035;-65
2022/08/24 04:53:45;;;;;;;164.32;119.18;;;17.40;99.90;;;;;;5115141;27;20049;-65
2022/08/24 04:56:14;;;;;;;165.98;118.47;;;17.60;99.90;;;;;;5134067;27;20045;-65
2022/08/24 04:58:41;;;;;;;167.23;119.55;;;17.60;99.90;;;;;;5114802;27;20050;-65
2022/08/24 05:01:14;;;;;;;159.13;120.40;;;17.40;99.90;;;;;;5115504;27;20503;-65
2022/08/24 05:03:42;;;;;;;182.80;126.18;;;17.40;99.90;;;;;;5119775;27;20035;-65
2022/08/24 05:06:11;;;;;;;187.75;126.18;;;17.60;99.90;;;;;;5115844;27;20447;-66
2022/08/24 05:08:36;;;;;;;159.20;116.20;;;17.40;99.90;;;;;;5134617;27;20076;-66
2022/08/24 05:11:07;;;;;;;168.05;119.68;;;17.50;99.90;;;;;;5115880;27;20303;-65
2022/08/24 05:13:35;;;;;;;168.13;120.25;;;17.80;99.90;;;;;;5116363;27;20122;-65
2022/08/24 05:16:05;;;;;;;143.23;110.82;;;17.80;99.90;;;;;;5115050;27;20122;-65
2022/08/24 05:18:32;;;;;;;142.18;108.75;;;17.60;99.90;;;;;;5115166;27;20168;-65
2022/08/24 05:20:58;;;;;;;133.70;106.72;;;17.80;99.90;;;;;;5096841;27;20388;-65
2022/08/24 05:23:25;;;;;;;144.77;111.85;;;18.00;99.90;;;;;;5114192;27;20054;-66
2022/08/24 05:25:51;;;;;;;146.65;113.97;;;18.00;99.90;;;;;;5087715;27;20039;-65
2022/08/24 05:28:17;;;;;;;150.50;113.05;;;17.80;99.90;;;;;;5096956;27;20263;-65
2022/08/24 05:30:43;;;;;;;131.82;107.97;;;18.00;99.90;;;;;;5131146;27;20070;-65
2022/08/24 05:33:09;;;;;;;123.40;102.97;;;18.10;99.90;;;;;;5113811;27;20465;-65
2022/08/24 05:35:38;;;;;;;127.10;103.38;;;18.10;99.90;;;;;;5115273;27;20520;-65
2022/08/24 05:38:05;;;;;;;114.50;99.13;;;18.40;99.90;;;;;;5097156;27;20047;-66
2022/08/24 05:40:31;;;;;;;108.03;95.75;;;18.40;99.90;;;;;;5131178;27;20037;-65
2022/08/24 05:42:56;;;;;;;100.03;89.13;;;19.00;99.90;;;;;;5112227;27;20061;-65
2022/08/24 05:45:22;;;;;;;100.53;89.57;;;19.10;99.90;;;;;;5113500;27;20049;-66
2022/08/24 05:47:48;;;;;;;101.82;90.80;;;19.20;99.90;;;;;;5117108;27;20137;-65
2022/08/24 05:50:14;;;;;;;86.30;77.75;;;19.30;99.90;;;;;;5117580;27;20046;-65
2022/08/24 05:52:41;;;;;;;83.72;75.38;;;19.90;99.90;;;;;;5136402;27;20582;-66
2022/08/24 05:55:07;;;;;;;82.20;74.13;;;20.10;99.90;;;;;;5118174;27;20125;-65
2022/08/24 05:57:35;;;;;;;74.07;66.88;;;20.30;99.90;;;;;;5116688;27;20042;-65
2022/08/24 06:00:02;;;;;;;73.10;65.65;;;20.80;99.90;;;;;;5115390;27;20047;-65
2022/08/24 06:02:28;;;;;;;68.85;62.33;;;21.10;99.90;;;;;;5116673;27;20290;-65
2022/08/24 06:04:54;;;;;;;72.35;65.30;;;21.10;99.90;;;;;;5099456;27;20405;-65
2022/08/24 06:07:20;;;;;;;65.63;59.50;;;21.60;99.90;;;;;;5115182;27;20247;-65
2022/08/24 06:09:46;;;;;;;64.57;58.42;;;21.70;99.90;;;;;;5133716;27;20203;-66
2022/08/24 06:12:11;;;;;;;65.82;59.53;;;21.90;99.90;;;;;;5134021;27;20176;-65
2022/08/24 06:14:37;;;;;;;63.35;57.25;;;22.00;99.90;;;;;;5115301;27;20505;-66
2022/08/24 06:17:06;;;;;;;61.97;56.05;;;22.40;99.90;;;;;;5132833;27;20034;-65
2022/08/24 06:19:32;;;;;;;58.50;52.92;;;22.60;99.90;;;;;;5114571;27;20042;-66
2022/08/24 06:21:59;;;;;;;60.97;55.22;;;22.70;99.90;;;;;;5080720;27;20040;-66
2022/08/24 06:27:19;;;;;;;56.35;50.95;;;22.90;99.90;;;;;;5099291;27;20409;-65
2022/08/24 06:29:45;;;;;;;56.85;51.15;;;23.20;99.90;;;;;;5114368;27;20039;-64
2022/08/24 06:32:11;;;;;;;53.90;48.80;;;23.40;99.90;;;;;;5080368;27;20429;-65
2022/08/24 06:34:38;;;;;;;52.25;47.25;;;23.40;99.90;;;;;;5097009;27;20153;-65
2022/08/24 06:37:04;;;;;;;54.60;49.30;;;23.70;99.90;;;;;;5114505;27;20130;-65
2022/08/24 06:39:30;;;;;;;49.40;44.78;;;23.80;99.90;;;;;;5097001;27;20039;-65
2022/08/24 06:41:55;;;;;;;53.88;48.28;;;24.00;99.90;;;;;;5132680;27;20261;-65
2022/08/24 06:44:21;;;;;;;49.88;45.33;;;24.10;99.90;;;;;;5114204;27;20392;-65
2022/08/24 06:46:47;;;;;;;51.28;46.17;;;24.30;99.90;;;;;;5114060;27;20148;-65
2022/08/24 06:49:13;;;;;;;49.95;45.00;;;24.40;99.90;;;;;;5114946;27;20345;-65
2022/08/24 06:51:39;;;;;;;48.45;44.22;;;24.50;99.90;;;;;;5095763;27;20043;-65
2022/08/24 06:54:05;;;;;;;45.70;41.35;;;24.60;99.90;;;;;;5113202;27;20318;-65
2022/08/24 06:56:30;;;;;;;46.58;42.15;;;24.60;99.90;;;;;;5132794;27;20366;-65
2022/08/24 06:58:56;;;;;;;50.42;45.85;;;24.90;99.90;;;;;;5132127;27;20235;-65
2022/08/24 07:01:24;;;;;;;52.53;47.10;;;25.00;99.90;;;;;;5133070;27;20468;-65
2022/08/24 07:03:50;;;;;;;52.53;47.50;;;25.10;99.90;;;;;;5113667;27;20034;-65
2022/08/24 07:06:17;;;;;;;46.08;41.67;;;25.10;99.90;;;;;;5113095;27;20130;-65
2022/08/24 07:08:43;;;;;;;46.90;42.70;;;25.10;99.90;;;;;;5114616;27;20055;-66
2022/08/24 07:11:13;;;;;;;46.85;42.42;;;25.10;99.90;;;;;;5115509;27;20103;-66
2022/08/24 07:13:40;;;;;;;46.90;42.60;;;25.00;99.90;;;;;;5115103;27;20035;-66
2022/08/24 07:16:06;;;;;;;46.53;42.58;;;24.80;99.90;;;;;;5115632;27;20683;-65
2022/08/24 07:18:32;;;;;;;45.40;41.35;;;24.90;99.90;;;;;;5133996;27;20053;-66
2022/08/24 07:21:01;;;;;;;46.25;41.95;;;24.80;99.90;;;;;;5114751;27;20035;-65
2022/08/24 07:23:28;;;;;;;46.88;42.00;;;25.20;99.90;;;;;;5133331;27;20046;-66
2022/08/24 07:25:54;;;;;;;44.38;40.20;;;25.40;99.90;;;;;;5133704;27;20038;-66
2022/08/24 07:28:20;;;;;;;46.28;41.78;;;25.50;99.90;;;;;;5114740;27;20070;-66
2022/08/24 07:30:46;;;;;;;47.38;42.58;;;25.50;99.90;;;;;;5115698;27;20080;-66
2022/08/24 07:33:12;;;;;;;44.38;39.90;;;25.40;99.90;;;;;;5114645;27;20243;-65
2022/08/24 07:35:38;;;;;;;43.58;39.70;;;25.70;99.90;;;;;;5133341;27;20049;-67
2022/08/24 07:38:05;;;;;;;42.28;38.47;;;26.00;99.90;;;;;;5097093;27;20046;-65
2022/08/24 07:40:32;;;;;;;43.50;39.53;;;26.10;99.90;;;;;;5114544;27;20049;-65
2022/08/24 07:42:58;;;;;;;44.03;40.03;;;26.00;99.90;;;;;;5133558;27;20316;-66
2022/08/24 07:45:25;;;;;;;42.80;38.65;;;25.90;99.90;;;;;;5114825;27;20188;-65
2022/08/24 07:47:51;;;;;;;43.95;39.60;;;26.10;99.90;;;;;;5114352;27;20053;-66
2022/08/24 07:50:18;;;;;;;42.25;38.33;;;26.40;99.90;;;;;;5097520;27;20331;-65
2022/08/24 07:52:45;;;;;;;43.92;39.95;;;26.50;99.90;;;;;;5133483;27;20269;-66
2022/08/24 07:55:12;;;;;;;43.25;39.50;;;26.50;99.90;;;;;;5113695;27;20078;-65
2022/08/24 07:57:39;;;;;;;44.40;40.47;;;26.40;99.90;;;;;;5097655;27;20122;-66
2022/08/24 08:00:09;;;;;;;42.90;39.08;;;26.30;99.90;;;;;;5114978;27;20173;-66
2022/08/24 08:02:36;;;;;;;39.47;36.28;;;26.30;99.90;;;;;;5114837;27;20047;-66
2022/08/24 08:05:04;;;;;;;42.55;38.35;;;26.40;99.90;;;;;;5132379;27;20042;-66
2022/08/24 08:07:30;;;;;;;38.67;35.28;;;26.50;99.90;;;;;;5097026;27;20074;-65
2022/08/24 08:09:55;;;;;;;34.55;31.42;;;26.70;99.90;;;;;;5114627;27;20068;-66
2022/08/24 08:12:21;;;;;;;37.85;34.28;;;27.00;99.90;;;;;;5115324;27;20138;-65
2022/08/24 08:14:47;;;;;;;39.78;32.67;;;27.30;99.90;;;;;;5114813;27;20130;-66
2022/08/24 08:17:13;;;;;;;28.92;26.23;;;27.40;99.90;;;;;;5114467;27;20117;-65
2022/08/24 08:19:41;;;;;;;30.63;27.77;;;27.40;99.90;;;;;;5097335;27;20393;-65
2022/08/24 08:24:50;;;;;;;30.17;26.98;;;27.70;99.90;;;;;;5115071;27;20171;-65
2022/08/24 08:27:16;;;;;;;27.05;24.70;;;27.60;99.90;;;;;;5114787;27;20175;-66
2022/08/24 08:29:42;;;;;;;20.05;18.10;;;27.60;99.90;;;;;;5114199;27;20357;-67
2022/08/24 08:32:13;;;;;;;28.75;26.17;;;27.60;99.90;;;;;;5114431;27;20307;-66
2022/08/24 08:34:39;;;;;;;34.25;31.25;;;27.70;99.90;;;;;;5133197;27;20521;-66
2022/08/24 08:37:05;;;;;;;36.10;32.83;;;27.80;99.90;;;;;;5114834;27;20091;-66
2022/08/24 08:39:31;;;;;;;35.03;32.20;;;27.70;99.90;;;;;;5132118;27;20042;-65
2022/08/24 08:42:14;;;;;;;27.98;25.08;;;27.80;99.90;;;;;;5114505;27;20035;-66
2022/08/24 08:45:01;;;;;;;30.80;28.10;;;27.80;99.90;;;;;;5133034;27;20500;-65
2022/08/24 08:47:49;;;;;;;32.75;29.83;;;28.00;99.90;;;;;;5114496;27;20047;-66
2022/08/24 08:50:24;;;;;;;27.25;24.67;;;27.90;99.90;;;;;;5097451;27;20072;-65
2022/08/24 08:53:28;;;;;;;37.28;23.35;;;27.70;99.90;;;;;;5133472;27;20053;-66
2022/08/24 08:56:13;;;;;;;25.77;23.30;;;27.70;99.90;;;;;;5084539;27;20107;-66
2022/08/24 08:58:46;;;;;;;19.98;17.90;;;28.00;99.90;;;;;;5114412;27;20070;-65
2022/08/24 09:01:30;;;;;;;16.05;14.07;;;28.50;99.90;;;;;;5114277;27;20540;-66
2022/08/24 09:04:01;;;;;;;14.95;13.45;;;29.10;99.90;;;;;;5114101;27;20046;-66
2022/08/24 09:06:36;;;;;;;11.75;9.82;;;29.70;99.90;;;;;;5115397;27;21320;-66
2022/08/24 09:09:14;;;;;;;12.00;8.73;;;29.60;99.90;;;;;;5110309;28;20080;-66
2022/08/24 09:12:27;;;;;;;6.30;4.88;;;29.80;99.90;;;;;;5110441;28;20404;-66
2022/08/24 09:15:13;;;;;;;16.65;4.45;;;29.90;99.90;;;;;;5091920;28;20433;-65
2022/08/24 09:18:09;;;;;;;7.70;3.80;;;30.20;99.90;;;;;;5114480;27;20043;-65
2022/08/24 09:20:59;;;;;;;5.82;1.70;;;30.10;99.90;;;;;;5115781;27;20031;-65
2022/08/24 09:23:46;;;;;;;3.72;2.05;;;30.30;99.90;;;;;;5097560;27;20039;-65
2022/08/24 09:26:26;;;;;;;5.32;1.80;;;30.30;99.90;;;;;;5114345;27;20046;-66
2022/08/24 09:29:21;;;;;;;6.78;2.80;;;30.70;99.90;;;;;;5114654;27;20047;-66
2022/08/24 09:32:08;;;;;;;12.07;10.75;;;30.80;99.90;;;;;;5113942;27;20077;-66
2022/08/24 09:34:50;;;;;;;12.23;10.68;;;30.90;99.90;;;;;;5115760;27;20127;-65
2022/08/24 09:37:50;;;;;;;10.15;9.23;;;30.60;99.90;;;;;;5097205;27;20441;-65
2022/08/24 09:40:23;;;;;;;7.82;5.80;;;30.60;99.90;;;;;;5097621;27;20276;-65
2022/08/24 09:43:15;;;;;;;9.60;6.50;;;30.40;99.90;;;;;;5113968;27;20047;-65
2022/08/24 09:45:58;;;;;;;8.90;6.93;;;30.40;99.90;;;;;;5090759;27;20047;-65
2022/08/24 09:49:02;;;;;;;11.60;10.50;;;30.40;99.90;;;;;;5115487;27;20112;-66
2022/08/24 09:51:56;;;;;;;7.82;7.13;;;30.10;99.90;;;;;;5115706;27;20633;-66
2022/08/24 09:54:50;;;;;;;6.63;6.03;;;29.90;99.90;;;;;;5114232;27;20615;-64
2022/08/24 09:57:51;;;;;;;8.40;3.85;;;29.40;99.90;;;;;;5113617;27;20047;-65
2022/08/24 10:00:26;;;;;;;3.00;1.92;;;29.40;99.90;;;;;;5115732;27;20050;-65
2022/08/24 10:03:22;;;;;;;5.53;2.90;;;29.40;99.90;;;;;;5115068;27;20035;-66
2022/08/24 10:05:56;;;;;;;5.97;4.72;;;29.30;99.90;;;;;;5113740;27;20393;-66
2022/08/24 10:08:40;;;;;;;5.75;3.90;;;29.40;99.90;;;;;;5113837;27;20369;-65
2022/08/24 10:11:27;;;;;;;5.43;4.85;;;29.40;99.90;;;;;;5115444;27;20393;-65
2022/08/24 10:14:05;;;;;;;4.03;3.60;;;29.50;99.90;;;;;;5114034;27;20426;-65
2022/08/24 10:17:02;;;;;;;5.55;2.60;;;29.50;99.90;;;;;;5096366;27;20137;-65
2022/08/24 10:19:47;;;;;;;4.35;2.33;;;29.60;99.90;;;;;;5096832;27;20248;-66
2022/08/24 10:22:34;;;;;;;3.75;1.50;;;29.60;99.90;;;;;;5113502;27;20426;-65
2022/08/24 10:25:27;;;;;;;2.88;1.30;;;29.60;99.90;;;;;;5114867;27;20630;-65
2022/08/24 10:28:28;;;;;;;5.07;1.25;;;29.60;99.90;;;;;;5095801;27;20625;-65
2022/08/24 10:31:18;;;;;;;2.55;0.95;;;29.60;99.90;;;;;;5096179;27;20357;-66
2022/08/24 10:33:52;;;;;;;3.42;1.30;;;29.80;99.90;;;;;;5112528;27;20097;-65
2022/08/24 10:36:36;;;;;;;3.22;0.88;;;30.00;99.90;;;;;;5096201;27;20050;-65
2022/08/24 10:39:53;;;;;;;4.05;1.02;;;30.10;99.00;;;;;;5113010;27;20490;-65
2022/08/24 10:45:56;;;;;;;4.93;0.98;;;30.70;95.80;;;;;;5112872;27;20054;-66
2022/08/24 10:48:31;;;;;;;1.98;0.77;;;30.60;97.80;;;;;;5086202;27;20619;-65
2022/08/24 10:51:41;;;;;;;3.25;0.80;;;31.00;98.50;;;;;;5113131;27;20043;-65
2022/08/24 10:54:11;;;;;;;3.40;0.93;;;31.40;94.60;;;;;;5113660;27;20050;-65
2022/08/24 10:56:56;;;;;;;2.88;0.75;;;31.50;93.20;;;;;;5095939;27;20043;-65
2022/08/24 10:59:22;;;;;;;3.30;0.85;;;31.60;91.90;;;;;;5095681;27;20047;-66
2022/08/24 11:02:19;;;;;;;4.32;1.00;;;31.40;93.90;;;;;;5111961;27;20123;-65
2022/08/24 11:04:55;;;;;;;8.43;1.30;;;31.50;98.40;;;;;;5112366;27;20047;-65
2022/08/24 11:07:21;;;;;;;2.33;1.02;;;31.80;98.10;;;;;;5112321;27;20051;-65
2022/08/24 11:09:52;;;;;;;4.43;1.10;;;32.20;90.80;;;;;;5112350;27;20058;-65
2022/08/24 11:12:29;;;;;;;2.35;1.02;;;32.20;90.50;;;;;;5112531;27;20598;-66
2022/08/24 11:14:58;;;;;;;5.30;1.50;;;32.00;86.20;;;;;;5111989;27;20043;-64
2022/08/24 11:17:28;;;;;;;5.47;1.40;;;31.70;84.90;;;;;;5095054;27;20127;-66
2022/08/24 11:19:54;;;;;;;2.22;1.20;;;31.80;85.40;;;;;;5112088;27;20143;-65
2022/08/24 11:22:27;;;;;;;2.10;1.40;;;31.60;85.00;;;;;;5095327;27;20122;-64
2022/08/24 11:24:58;;;;;;;3.70;1.77;;;31.70;81.60;;;;;;5112259;27;20081;-65
2022/08/24 11:27:35;;;;;;;5.28;1.80;;;31.50;86.80;;;;;;5113435;27;20053;-65
2022/08/24 11:30:35;;;;;;;4.22;1.80;;;31.30;84.60;;;;;;5112424;27;20039;-65
2022/08/24 11:33:03;;;;;;;3.97;1.67;;;31.40;78.60;;;;;;5085533;27;20070;-65
2022/08/24 11:35:32;;;;;;;4.60;2.60;;;31.30;79.60;;;;;;5111466;27;20413;-65
2022/08/24 11:38:16;;;;;;;4.05;2.00;;;31.30;81.00;;;;;;5111558;27;20300;-65
2022/08/24 11:41:06;;;;;;;6.03;1.85;;;31.30;88.30;;;;;;5111243;27;20057;-65
2022/08/24 11:43:40;;;;;;;5.22;1.90;;;31.70;86.00;;;;;;5111555;27;20039;-65
2022/08/24 11:46:35;;;;;;;4.75;2.08;;;32.00;81.60;;;;;;5112099;27;20043;-65
2022/08/24 11:49:10;;;;;;;4.25;2.03;;;32.00;77.60;;;;;;5111643;27;20043;-65
2022/08/24 11:51:39;;;;;;;14.05;2.95;;;32.00;79.50;;;;;;5111236;27;20049;-65
2022/08/24 11:54:23;;;;;;;10.63;2.38;;;32.30;80.70;;;;;;5111744;27;20039;-64
2022/08/24 11:57:04;;;;;;;5.13;2.08;;;32.80;79.30;;;;;;5110938;27;20436;-65
2022/08/24 11:59:40;;;;;;;3.20;1.55;;;33.00;75.30;;;;;;5111104;27;20404;-65
2022/08/24 12:02:37;;;;;;;3.58;1.40;;;33.20;76.40;;;;;;5110902;27;20050;-66
2022/08/24 12:05:12;;;;;;;3.70;1.65;;;33.40;77.80;;;;;;5092937;28;20386;-65
2022/08/24 12:07:57;;;;;;;6.25;1.30;;;33.60;74.00;;;;;;5119901;27;20051;-65
2022/08/24 12:10:44;;;;;;;4.90;2.00;;;33.90;75.90;;;;;;5114532;27;20046;-65
2022/08/24 12:13:21;;;;;;;4.03;2.25;;;34.10;72.20;;;;;;5114926;27;20409;-65
2022/08/24 12:15:50;;;;;;;5.40;1.10;;;34.20;72.00;;;;;;5114095;27;20042;-65
2022/08/24 12:18:59;;;;;;;4.97;1.90;;;34.50;77.20;;;;;;5114387;27;20041;-65
2022/08/24 12:21:30;;;;;;;6.72;1.25;;;34.40;76.00;;;;;;5102160;27;20058;-66
2022/08/24 12:24:04;;;;;;;4.10;2.05;;;34.80;73.10;;;;;;5114395;27;20130;-66
2022/08/24 12:26:50;;;;;;;4.68;1.80;;;34.40;82.10;;;;;;5133619;27;20330;-66
2022/08/24 12:29:27;;;;;;;5.65;2.22;;;34.30;83.60;;;;;;5114900;27;20039;-66
2022/08/24 12:32:03;;;;;;;4.43;1.90;;;34.00;87.90;;;;;;5114264;27;20043;-66
2022/08/24 12:34:56;;;;;;;3.88;1.85;;;33.60;89.00;;;;;;5096871;27;20304;-66
2022/08/24 12:37:28;;;;;;;5.53;2.70;;;33.60;91.50;;;;;;5114074;27;20119;-66
2022/08/24 12:39:57;;;;;;;2.70;1.60;;;33.70;91.00;;;;;;5113335;27;20114;-64
2022/08/24 12:42:50;;;;;;;4.90;2.03;;;33.60;92.10;;;;;;5114333;27;20514;-64
2022/08/24 12:45:19;;;;;;;3.67;2.08;;;33.50;87.80;;;;;;5132319;27;20204;-65
2022/08/24 12:47:53;;;;;;;4.30;2.10;;;33.60;92.30;;;;;;5113647;27;20547;-64
2022/08/24 12:50:30;;;;;;;3.00;2.60;;;33.60;93.30;;;;;;5113729;27;20548;-64
2022/08/24 12:53:31;;;;;;;6.65;2.80;;;33.80;92.20;;;;;;5117580;27;20046;-65
2022/08/24 12:56:08;;;;;;;4.83;2.70;;;33.80;91.50;;;;;;5118288;27;20547;-65
2022/08/24 12:58:55;;;;;;;5.18;2.20;;;34.00;91.70;;;;;;5117638;27;20050;-65
2022/08/24 13:01:25;;;;;;;7.55;2.28;;;34.10;90.40;;;;;;5117872;27;20611;-64